sensor_id;sensor_type;location;lat;lon;timestamp;P1;durP1;ratioP1;P2;durP2;ratioP2
57707;SDS011;43540;51.690;9.562;2023-08-30T00:01:12;3.00;;;2.53;;
57707;SDS011;43540;51.690;9.562;2023-08-30T00:03:39;4.72;;;2.95;;
57707;SDS011;43540;51.690;9.562;2023-08-30T00:06:06;6.57;;;2.47;;
57707;SDS011;43540;51.690;9.562;2023-08-30T00:08:33;4.38;;;2.53;;
57707;SDS011;43540;51.690;9.562;2023-08-30T00:11:01;3.95;;;2.60;;
57707;SDS011;43540;51.690;9.562;2023-08-30T00:13:32;5.05;;;2.58;;
57707;SDS011;43540;51.690;9.562;2023-08-30T00:16:03;4.05;;;2.45;;
57707;SDS011;43540;51.690;9.562;2023-08-30T00:18:30;2.78;;;2.40;;
57707;SDS011;43540;51.690;9.562;2023-08-30T00:20:57;2.42;;;2.10;;
57707;SDS011;43540;51.690;9.562;2023-08-30T00:23:24;2.47;;;2.22;;
57707;SDS011;43540;51.690;9.562;2023-08-30T00:25:51;3.80;;;2.40;;
57707;SDS011;43540;51.690;9.562;2023-08-30T00:28:18;2.92;;;2.17;;
57707;SDS011;43540;51.690;9.562;2023-08-30T00:30:45;5.07;;;2.38;;
57707;SDS011;43540;51.690;9.562;2023-08-30T00:33:12;9.13;;;3.05;;
57707;SDS011;43540;51.690;9.562;2023-08-30T00:35:39;2.70;;;2.17;;
57707;SDS011;43540;51.690;9.562;2023-08-30T00:38:06;4.28;;;2.47;;
57707;SDS011;43540;51.690;9.562;2023-08-30T00:40:42;4.50;;;2.42;;
57707;SDS011;43540;51.690;9.562;2023-08-30T00:43:09;4.07;;;2.60;;
57707;SDS011;43540;51.690;9.562;2023-08-30T00:45:37;4.40;;;2.70;;
57707;SDS011;43540;51.690;9.562;2023-08-30T00:48:06;4.63;;;2.47;;
57707;SDS011;43540;51.690;9.562;2023-08-30T00:50:34;5.90;;;2.90;;
57707;SDS011;43540;51.690;9.562;2023-08-30T00:53:03;3.85;;;2.70;;
57707;SDS011;43540;51.690;9.562;2023-08-30T00:55:35;6.03;;;2.50;;
57707;SDS011;43540;51.690;9.562;2023-08-30T00:58:03;2.67;;;2.40;;
57707;SDS011;43540;51.690;9.562;2023-08-30T01:00:31;4.13;;;2.65;;
57707;SDS011;43540;51.690;9.562;2023-08-30T01:03:00;4.55;;;2.55;;
57707;SDS011;43540;51.690;9.562;2023-08-30T01:05:27;5.38;;;2.70;;
57707;SDS011;43540;51.690;9.562;2023-08-30T01:07:54;3.65;;;2.67;;
57707;SDS011;43540;51.690;9.562;2023-08-30T01:10:35;3.00;;;2.60;;
57707;SDS011;43540;51.690;9.562;2023-08-30T01:13:19;2.92;;;2.53;;
57707;SDS011;43540;51.690;9.562;2023-08-30T01:15:47;3.72;;;2.28;;
57707;SDS011;43540;51.690;9.562;2023-08-30T01:18:18;5.70;;;2.45;;
57707;SDS011;43540;51.690;9.562;2023-08-30T01:20:47;3.58;;;2.58;;
57707;SDS011;43540;51.690;9.562;2023-08-30T01:25:45;4.70;;;2.50;;
57707;SDS011;43540;51.690;9.562;2023-08-30T01:28:33;3.33;;;2.40;;
57707;SDS011;43540;51.690;9.562;2023-08-30T01:31:02;2.58;;;2.20;;
57707;SDS011;43540;51.690;9.562;2023-08-30T01:33:30;3.15;;;2.08;;
57707;SDS011;43540;51.690;9.562;2023-08-30T01:35:59;2.58;;;2.10;;
57707;SDS011;43540;51.690;9.562;2023-08-30T01:38:28;2.88;;;2.30;;
57707;SDS011;43540;51.690;9.562;2023-08-30T01:40:56;4.13;;;2.08;;
57707;SDS011;43540;51.690;9.562;2023-08-30T01:43:26;3.42;;;2.75;;
57707;SDS011;43540;51.690;9.562;2023-08-30T01:45:55;3.17;;;2.53;;
57707;SDS011;43540;51.690;9.562;2023-08-30T01:48:23;5.57;;;3.15;;
57707;SDS011;43540;51.690;9.562;2023-08-30T01:50:51;4.57;;;2.60;;
57707;SDS011;43540;51.690;9.562;2023-08-30T01:53:17;5.63;;;2.70;;
57707;SDS011;43540;51.690;9.562;2023-08-30T01:55:46;3.97;;;2.80;;
57707;SDS011;43540;51.690;9.562;2023-08-30T01:58:13;3.75;;;2.70;;
57707;SDS011;43540;51.690;9.562;2023-08-30T02:00:40;5.85;;;2.53;;
57707;SDS011;43540;51.690;9.562;2023-08-30T02:03:11;3.67;;;2.90;;
57707;SDS011;43540;51.690;9.562;2023-08-30T02:05:42;2.55;;;2.28;;
57707;SDS011;43540;51.690;9.562;2023-08-30T02:08:35;3.67;;;2.53;;
57707;SDS011;43540;51.690;9.562;2023-08-30T02:11:11;6.03;;;2.33;;
57707;SDS011;43540;51.690;9.562;2023-08-30T02:13:43;3.63;;;2.58;;
57707;SDS011;43540;51.690;9.562;2023-08-30T02:16:13;3.10;;;2.55;;
57707;SDS011;43540;51.690;9.562;2023-08-30T02:18:41;3.47;;;2.47;;
57707;SDS011;43540;51.690;9.562;2023-08-30T02:21:08;3.40;;;2.58;;
57707;SDS011;43540;51.690;9.562;2023-08-30T02:23:35;5.20;;;2.55;;
57707;SDS011;43540;51.690;9.562;2023-08-30T02:26:05;4.13;;;2.50;;
57707;SDS011;43540;51.690;9.562;2023-08-30T02:28:32;4.13;;;2.35;;
57707;SDS011;43540;51.690;9.562;2023-08-30T02:30:59;3.13;;;2.60;;
57707;SDS011;43540;51.690;9.562;2023-08-30T02:33:26;3.00;;;2.45;;
57707;SDS011;43540;51.690;9.562;2023-08-30T02:35:53;2.97;;;2.67;;
57707;SDS011;43540;51.690;9.562;2023-08-30T02:38:20;2.95;;;2.42;;
57707;SDS011;43540;51.690;9.562;2023-08-30T02:40:47;5.20;;;2.50;;
57707;SDS011;43540;51.690;9.562;2023-08-30T02:43:14;3.72;;;2.70;;
57707;SDS011;43540;51.690;9.562;2023-08-30T02:45:41;2.88;;;2.20;;
57707;SDS011;43540;51.690;9.562;2023-08-30T02:48:08;2.88;;;2.33;;
57707;SDS011;43540;51.690;9.562;2023-08-30T02:50:35;2.45;;;2.13;;
57707;SDS011;43540;51.690;9.562;2023-08-30T02:53:02;3.88;;;2.50;;
57707;SDS011;43540;51.690;9.562;2023-08-30T02:55:33;3.47;;;2.50;;
57707;SDS011;43540;51.690;9.562;2023-08-30T02:58:01;4.95;;;2.50;;
57707;SDS011;43540;51.690;9.562;2023-08-30T03:00:28;3.80;;;2.65;;
57707;SDS011;43540;51.690;9.562;2023-08-30T03:02:55;2.78;;;2.28;;
57707;SDS011;43540;51.690;9.562;2023-08-30T03:05:22;3.88;;;2.50;;
57707;SDS011;43540;51.690;9.562;2023-08-30T03:07:48;3.85;;;2.50;;
57707;SDS011;43540;51.690;9.562;2023-08-30T03:10:15;2.50;;;2.13;;
57707;SDS011;43540;51.690;9.562;2023-08-30T03:12:42;2.42;;;2.13;;
57707;SDS011;43540;51.690;9.562;2023-08-30T03:15:09;4.10;;;2.30;;
57707;SDS011;43540;51.690;9.562;2023-08-30T03:17:36;2.30;;;2.10;;
57707;SDS011;43540;51.690;9.562;2023-08-30T03:20:03;3.78;;;2.05;;
57707;SDS011;43540;51.690;9.562;2023-08-30T03:22:31;2.75;;;2.30;;
57707;SDS011;43540;51.690;9.562;2023-08-30T03:24:58;3.97;;;2.30;;
57707;SDS011;43540;51.690;9.562;2023-08-30T03:27:25;3.55;;;2.33;;
57707;SDS011;43540;51.690;9.562;2023-08-30T03:29:52;4.65;;;2.45;;
57707;SDS011;43540;51.690;9.562;2023-08-30T03:32:21;2.58;;;2.35;;
57707;SDS011;43540;51.690;9.562;2023-08-30T03:34:48;3.92;;;2.33;;
57707;SDS011;43540;51.690;9.562;2023-08-30T03:37:18;3.47;;;2.67;;
57707;SDS011;43540;51.690;9.562;2023-08-30T03:39:45;3.28;;;2.45;;
57707;SDS011;43540;51.690;9.562;2023-08-30T03:42:12;2.65;;;2.25;;
57707;SDS011;43540;51.690;9.562;2023-08-30T03:44:39;3.15;;;2.70;;
57707;SDS011;43540;51.690;9.562;2023-08-30T03:47:06;3.35;;;2.50;;
57707;SDS011;43540;51.690;9.562;2023-08-30T03:49:36;3.95;;;2.80;;
57707;SDS011;43540;51.690;9.562;2023-08-30T03:52:03;6.38;;;2.90;;
57707;SDS011;43540;51.690;9.562;2023-08-30T03:54:31;4.78;;;2.63;;
57707;SDS011;43540;51.690;9.562;2023-08-30T03:56:58;4.40;;;2.88;;
57707;SDS011;43540;51.690;9.562;2023-08-30T03:59:25;3.25;;;2.72;;
57707;SDS011;43540;51.690;9.562;2023-08-30T04:01:54;4.30;;;2.83;;
57707;SDS011;43540;51.690;9.562;2023-08-30T04:04:21;3.30;;;2.70;;
57707;SDS011;43540;51.690;9.562;2023-08-30T04:06:47;5.97;;;2.80;;
57707;SDS011;43540;51.690;9.562;2023-08-30T04:09:14;3.53;;;2.88;;
57707;SDS011;43540;51.690;9.562;2023-08-30T04:11:41;4.53;;;2.72;;
57707;SDS011;43540;51.690;9.562;2023-08-30T04:14:08;4.40;;;3.00;;
57707;SDS011;43540;51.690;9.562;2023-08-30T04:16:35;8.70;;;3.85;;
57707;SDS011;43540;51.690;9.562;2023-08-30T04:19:02;8.35;;;3.00;;
57707;SDS011;43540;51.690;9.562;2023-08-30T04:21:36;3.72;;;3.10;;
57707;SDS011;43540;51.690;9.562;2023-08-30T04:24:08;5.32;;;2.97;;
57707;SDS011;43540;51.690;9.562;2023-08-30T04:26:35;3.67;;;3.10;;
57707;SDS011;43540;51.690;9.562;2023-08-30T04:29:03;4.43;;;3.25;;
57707;SDS011;43540;51.690;9.562;2023-08-30T04:31:30;5.53;;;3.20;;
57707;SDS011;43540;51.690;9.562;2023-08-30T04:33:57;6.22;;;3.10;;
57707;SDS011;43540;51.690;9.562;2023-08-30T04:36:23;4.95;;;3.00;;
57707;SDS011;43540;51.690;9.562;2023-08-30T04:38:55;5.05;;;3.50;;
57707;SDS011;43540;51.690;9.562;2023-08-30T04:41:28;4.30;;;3.17;;
57707;SDS011;43540;51.690;9.562;2023-08-30T04:43:56;4.75;;;3.25;;
57707;SDS011;43540;51.690;9.562;2023-08-30T04:46:27;5.35;;;3.47;;
57707;SDS011;43540;51.690;9.562;2023-08-30T04:48:56;5.07;;;3.40;;
57707;SDS011;43540;51.690;9.562;2023-08-30T04:51:23;6.18;;;3.42;;
57707;SDS011;43540;51.690;9.562;2023-08-30T04:53:50;5.25;;;3.50;;
57707;SDS011;43540;51.690;9.562;2023-08-30T04:56:17;5.70;;;3.83;;
57707;SDS011;43540;51.690;9.562;2023-08-30T04:58:44;7.32;;;3.90;;
57707;SDS011;43540;51.690;9.562;2023-08-30T05:01:11;5.95;;;3.80;;
57707;SDS011;43540;51.690;9.562;2023-08-30T05:03:40;8.07;;;4.43;;
57707;SDS011;43540;51.690;9.562;2023-08-30T05:06:16;7.15;;;4.50;;
57707;SDS011;43540;51.690;9.562;2023-08-30T05:08:44;6.30;;;3.97;;
57707;SDS011;43540;51.690;9.562;2023-08-30T05:11:13;7.82;;;4.10;;
57707;SDS011;43540;51.690;9.562;2023-08-30T05:13:46;4.93;;;3.67;;
57707;SDS011;43540;51.690;9.562;2023-08-30T05:16:16;8.13;;;4.00;;
57707;SDS011;43540;51.690;9.562;2023-08-30T05:18:43;6.55;;;4.05;;
57707;SDS011;43540;51.690;9.562;2023-08-30T05:21:09;8.90;;;4.25;;
57707;SDS011;43540;51.690;9.562;2023-08-30T05:23:36;6.88;;;4.20;;
57707;SDS011;43540;51.690;9.562;2023-08-30T05:26:06;7.22;;;3.97;;
57707;SDS011;43540;51.690;9.562;2023-08-30T05:28:33;8.90;;;4.38;;
57707;SDS011;43540;51.690;9.562;2023-08-30T05:31:00;7.72;;;4.43;;
57707;SDS011;43540;51.690;9.562;2023-08-30T05:33:31;7.10;;;4.25;;
57707;SDS011;43540;51.690;9.562;2023-08-30T05:35:58;6.40;;;4.38;;
57707;SDS011;43540;51.690;9.562;2023-08-30T05:38:25;7.95;;;4.22;;
57707;SDS011;43540;51.690;9.562;2023-08-30T05:40:52;5.32;;;3.80;;
57707;SDS011;43540;51.690;9.562;2023-08-30T05:43:28;6.45;;;4.10;;
57707;SDS011;43540;51.690;9.562;2023-08-30T05:45:55;7.18;;;4.60;;
57707;SDS011;43540;51.690;9.562;2023-08-30T05:48:30;8.52;;;4.85;;
57707;SDS011;43540;51.690;9.562;2023-08-30T05:50:59;8.18;;;5.03;;
57707;SDS011;43540;51.690;9.562;2023-08-30T05:53:25;6.28;;;4.35;;
57707;SDS011;43540;51.690;9.562;2023-08-30T05:55:52;9.70;;;5.00;;
57707;SDS011;43540;51.690;9.562;2023-08-30T05:58:19;8.48;;;4.57;;
57707;SDS011;43540;51.690;9.562;2023-08-30T06:00:46;9.30;;;5.20;;
57707;SDS011;43540;51.690;9.562;2023-08-30T06:03:16;14.07;;;8.13;;
57707;SDS011;43540;51.690;9.562;2023-08-30T06:05:52;9.82;;;6.15;;
57707;SDS011;43540;51.690;9.562;2023-08-30T06:08:19;10.20;;;5.82;;
57707;SDS011;43540;51.690;9.562;2023-08-30T06:10:46;11.15;;;5.70;;
57707;SDS011;43540;51.690;9.562;2023-08-30T06:13:13;18.15;;;6.97;;
57707;SDS011;43540;51.690;9.562;2023-08-30T06:15:43;11.88;;;6.00;;
57707;SDS011;43540;51.690;9.562;2023-08-30T06:18:14;9.13;;;5.50;;
57707;SDS011;43540;51.690;9.562;2023-08-30T06:20:41;11.45;;;5.20;;
57707;SDS011;43540;51.690;9.562;2023-08-30T06:23:08;8.52;;;4.80;;
57707;SDS011;43540;51.690;9.562;2023-08-30T06:25:36;8.40;;;5.03;;
57707;SDS011;43540;51.690;9.562;2023-08-30T06:28:03;8.85;;;5.25;;
57707;SDS011;43540;51.690;9.562;2023-08-30T06:30:30;8.32;;;5.05;;
57707;SDS011;43540;51.690;9.562;2023-08-30T06:32:57;8.75;;;5.47;;
57707;SDS011;43540;51.690;9.562;2023-08-30T06:35:25;8.18;;;5.05;;
57707;SDS011;43540;51.690;9.562;2023-08-30T06:37:53;9.60;;;5.20;;
57707;SDS011;43540;51.690;9.562;2023-08-30T06:40:22;8.20;;;4.88;;
57707;SDS011;43540;51.690;9.562;2023-08-30T06:42:51;7.45;;;4.65;;
57707;SDS011;43540;51.690;9.562;2023-08-30T06:45:18;8.48;;;4.75;;
57707;SDS011;43540;51.690;9.562;2023-08-30T06:47:47;9.77;;;5.20;;
57707;SDS011;43540;51.690;9.562;2023-08-30T06:50:16;9.63;;;4.80;;
57707;SDS011;43540;51.690;9.562;2023-08-30T06:52:43;8.00;;;4.80;;
57707;SDS011;43540;51.690;9.562;2023-08-30T06:55:13;6.32;;;4.78;;
57707;SDS011;43540;51.690;9.562;2023-08-30T06:57:40;7.80;;;5.50;;
57707;SDS011;43540;51.690;9.562;2023-08-30T07:00:07;6.82;;;4.80;;
57707;SDS011;43540;51.690;9.562;2023-08-30T07:02:36;9.00;;;5.10;;
57707;SDS011;43540;51.690;9.562;2023-08-30T07:05:04;9.93;;;5.18;;
57707;SDS011;43540;51.690;9.562;2023-08-30T07:07:31;11.07;;;5.20;;
57707;SDS011;43540;51.690;9.562;2023-08-30T07:09:58;9.55;;;4.78;;
57707;SDS011;43540;51.690;9.562;2023-08-30T07:12:25;7.93;;;5.25;;
57707;SDS011;43540;51.690;9.562;2023-08-30T07:14:52;9.27;;;5.47;;
57707;SDS011;43540;51.690;9.562;2023-08-30T07:17:19;9.90;;;5.70;;
57707;SDS011;43540;51.690;9.562;2023-08-30T07:19:46;7.63;;;4.97;;
57707;SDS011;43540;51.690;9.562;2023-08-30T07:22:13;8.43;;;5.50;;
57707;SDS011;43540;51.690;9.562;2023-08-30T07:24:42;12.30;;;5.10;;
57707;SDS011;43540;51.690;9.562;2023-08-30T07:27:10;8.07;;;5.53;;
57707;SDS011;43540;51.690;9.562;2023-08-30T07:29:39;7.20;;;4.75;;
57707;SDS011;43540;51.690;9.562;2023-08-30T07:32:10;8.20;;;5.57;;
57707;SDS011;43540;51.690;9.562;2023-08-30T07:34:36;8.63;;;5.45;;
57707;SDS011;43540;51.690;9.562;2023-08-30T07:37:03;7.93;;;5.53;;
57707;SDS011;43540;51.690;9.562;2023-08-30T07:39:30;8.68;;;5.00;;
57707;SDS011;43540;51.690;9.562;2023-08-30T07:41:57;9.93;;;6.13;;
57707;SDS011;43540;51.690;9.562;2023-08-30T07:44:24;9.73;;;6.03;;
57707;SDS011;43540;51.690;9.562;2023-08-30T07:46:52;10.45;;;6.53;;
57707;SDS011;43540;51.690;9.562;2023-08-30T07:49:19;9.38;;;6.07;;
57707;SDS011;43540;51.690;9.562;2023-08-30T07:51:46;10.88;;;7.20;;
57707;SDS011;43540;51.690;9.562;2023-08-30T07:54:13;14.45;;;7.45;;
57707;SDS011;43540;51.690;9.562;2023-08-30T07:56:40;10.30;;;6.63;;
57707;SDS011;43540;51.690;9.562;2023-08-30T07:59:09;10.85;;;7.25;;
57707;SDS011;43540;51.690;9.562;2023-08-30T08:01:36;12.65;;;7.70;;
57707;SDS011;43540;51.690;9.562;2023-08-30T08:04:03;13.55;;;8.30;;
57707;SDS011;43540;51.690;9.562;2023-08-30T08:06:33;14.60;;;8.75;;
57707;SDS011;43540;51.690;9.562;2023-08-30T08:09:03;15.88;;;8.48;;
57707;SDS011;43540;51.690;9.562;2023-08-30T08:11:31;14.57;;;8.48;;
57707;SDS011;43540;51.690;9.562;2023-08-30T08:13:58;14.20;;;9.13;;
57707;SDS011;43540;51.690;9.562;2023-08-30T08:16:26;13.80;;;8.80;;
57707;SDS011;43540;51.690;9.562;2023-08-30T08:18:53;13.60;;;8.52;;
57707;SDS011;43540;51.690;9.562;2023-08-30T08:21:22;12.80;;;8.65;;
57707;SDS011;43540;51.690;9.562;2023-08-30T08:23:48;15.07;;;8.50;;
57707;SDS011;43540;51.690;9.562;2023-08-30T08:26:16;15.23;;;8.35;;
57707;SDS011;43540;51.690;9.562;2023-08-30T08:28:43;11.38;;;7.47;;
57707;SDS011;43540;51.690;9.562;2023-08-30T08:31:09;12.52;;;8.23;;
57707;SDS011;43540;51.690;9.562;2023-08-30T08:33:37;11.65;;;7.82;;
57707;SDS011;43540;51.690;9.562;2023-08-30T08:36:04;12.40;;;7.88;;
57707;SDS011;43540;51.690;9.562;2023-08-30T08:38:31;11.93;;;8.25;;
57707;SDS011;43540;51.690;9.562;2023-08-30T08:41:05;12.38;;;8.00;;
57707;SDS011;43540;51.690;9.562;2023-08-30T08:43:32;11.75;;;7.55;;
57707;SDS011;43540;51.690;9.562;2023-08-30T08:46:01;12.95;;;8.07;;
57707;SDS011;43540;51.690;9.562;2023-08-30T08:48:37;11.98;;;7.88;;
57707;SDS011;43540;51.690;9.562;2023-08-30T08:51:07;11.55;;;7.85;;
57707;SDS011;43540;51.690;9.562;2023-08-30T08:53:34;11.48;;;7.32;;
57707;SDS011;43540;51.690;9.562;2023-08-30T08:56:03;10.82;;;7.80;;
57707;SDS011;43540;51.690;9.562;2023-08-30T08:58:32;14.55;;;8.30;;
57707;SDS011;43540;51.690;9.562;2023-08-30T09:00:59;11.32;;;7.47;;
57707;SDS011;43540;51.690;9.562;2023-08-30T09:03:26;12.15;;;7.45;;
57707;SDS011;43540;51.690;9.562;2023-08-30T09:05:53;10.98;;;7.50;;
57707;SDS011;43540;51.690;9.562;2023-08-30T09:08:21;13.50;;;8.38;;
57707;SDS011;43540;51.690;9.562;2023-08-30T09:10:48;11.10;;;7.50;;
57707;SDS011;43540;51.690;9.562;2023-08-30T09:13:17;11.23;;;7.60;;
57707;SDS011;43540;51.690;9.562;2023-08-30T09:15:44;12.73;;;7.47;;
57707;SDS011;43540;51.690;9.562;2023-08-30T09:18:14;12.38;;;8.38;;
57707;SDS011;43540;51.690;9.562;2023-08-30T09:20:42;12.45;;;8.15;;
57707;SDS011;43540;51.690;9.562;2023-08-30T09:23:19;13.73;;;8.27;;
57707;SDS011;43540;51.690;9.562;2023-08-30T09:25:47;12.73;;;7.85;;
57707;SDS011;43540;51.690;9.562;2023-08-30T09:28:20;12.00;;;7.40;;
57707;SDS011;43540;51.690;9.562;2023-08-30T09:30:51;15.00;;;8.50;;
57707;SDS011;43540;51.690;9.562;2023-08-30T09:33:22;13.75;;;8.45;;
57707;SDS011;43540;51.690;9.562;2023-08-30T09:35:49;13.45;;;8.38;;
57707;SDS011;43540;51.690;9.562;2023-08-30T09:38:19;12.27;;;7.13;;
57707;SDS011;43540;51.690;9.562;2023-08-30T09:40:49;12.40;;;8.38;;
57707;SDS011;43540;51.690;9.562;2023-08-30T09:43:19;11.60;;;7.68;;
57707;SDS011;43540;51.690;9.562;2023-08-30T09:45:50;11.95;;;8.15;;
57707;SDS011;43540;51.690;9.562;2023-08-30T09:48:27;13.27;;;9.30;;
57707;SDS011;43540;51.690;9.562;2023-08-30T09:50:54;13.25;;;9.25;;
57707;SDS011;43540;51.690;9.562;2023-08-30T09:53:25;12.13;;;8.48;;
57707;SDS011;43540;51.690;9.562;2023-08-30T09:55:54;11.82;;;8.45;;
57707;SDS011;43540;51.690;9.562;2023-08-30T09:58:22;13.48;;;9.15;;
57707;SDS011;43540;51.690;9.562;2023-08-30T10:00:51;13.77;;;9.57;;
57707;SDS011;43540;51.690;9.562;2023-08-30T10:03:18;13.52;;;9.23;;
57707;SDS011;43540;51.690;9.562;2023-08-30T10:05:57;13.55;;;9.25;;
57707;SDS011;43540;51.690;9.562;2023-08-30T10:08:27;16.45;;;11.18;;
57707;SDS011;43540;51.690;9.562;2023-08-30T10:10:57;14.95;;;10.32;;
57707;SDS011;43540;51.690;9.562;2023-08-30T10:13:25;15.30;;;10.90;;
57707;SDS011;43540;51.690;9.562;2023-08-30T10:15:53;16.77;;;10.80;;
57707;SDS011;43540;51.690;9.562;2023-08-30T10:18:27;15.75;;;11.55;;
57707;SDS011;43540;51.690;9.562;2023-08-30T10:20:57;17.50;;;12.13;;
57707;SDS011;43540;51.690;9.562;2023-08-30T10:23:25;17.73;;;12.15;;
57707;SDS011;43540;51.690;9.562;2023-08-30T10:25:54;15.98;;;11.68;;
57707;SDS011;43540;51.690;9.562;2023-08-30T10:28:22;18.50;;;12.32;;
57707;SDS011;43540;51.690;9.562;2023-08-30T10:30:51;19.67;;;11.52;;
57707;SDS011;43540;51.690;9.562;2023-08-30T10:33:18;17.83;;;12.05;;
57707;SDS011;43540;51.690;9.562;2023-08-30T10:35:48;20.73;;;12.73;;
57707;SDS011;43540;51.690;9.562;2023-08-30T10:38:25;17.63;;;12.43;;
57707;SDS011;43540;51.690;9.562;2023-08-30T10:40:55;17.25;;;11.85;;
57707;SDS011;43540;51.690;9.562;2023-08-30T10:43:33;17.08;;;12.38;;
57707;SDS011;43540;51.690;9.562;2023-08-30T10:46:02;19.45;;;13.80;;
57707;SDS011;43540;51.690;9.562;2023-08-30T10:48:33;20.95;;;12.98;;
57707;SDS011;43540;51.690;9.562;2023-08-30T10:53:34;23.67;;;14.40;;
57707;SDS011;43540;51.690;9.562;2023-08-30T10:56:11;22.65;;;14.45;;
57707;SDS011;43540;51.690;9.562;2023-08-30T10:58:43;22.55;;;14.10;;
57707;SDS011;43540;51.690;9.562;2023-08-30T11:01:13;21.45;;;13.05;;
57707;SDS011;43540;51.690;9.562;2023-08-30T11:03:42;19.42;;;14.02;;
57707;SDS011;43540;51.690;9.562;2023-08-30T11:06:12;20.85;;;13.85;;
57707;SDS011;43540;51.690;9.562;2023-08-30T11:08:40;17.63;;;12.50;;
57707;SDS011;43540;51.690;9.562;2023-08-30T11:11:08;18.30;;;12.55;;
57707;SDS011;43540;51.690;9.562;2023-08-30T11:13:37;18.90;;;12.48;;
57707;SDS011;43540;51.690;9.562;2023-08-30T11:16:04;18.60;;;12.65;;
57707;SDS011;43540;51.690;9.562;2023-08-30T11:18:36;18.38;;;12.63;;
57707;SDS011;43540;51.690;9.562;2023-08-30T11:21:04;17.75;;;11.60;;
57707;SDS011;43540;51.690;9.562;2023-08-30T11:23:32;18.38;;;12.13;;
57707;SDS011;43540;51.690;9.562;2023-08-30T11:26:00;18.23;;;12.25;;
57707;SDS011;43540;51.690;9.562;2023-08-30T11:28:30;17.95;;;11.70;;
57707;SDS011;43540;51.690;9.562;2023-08-30T11:30:57;19.02;;;12.70;;
57707;SDS011;43540;51.690;9.562;2023-08-30T11:33:23;18.42;;;12.20;;
57707;SDS011;43540;51.690;9.562;2023-08-30T11:35:51;16.15;;;11.65;;
57707;SDS011;43540;51.690;9.562;2023-08-30T11:38:19;18.48;;;12.07;;
57707;SDS011;43540;51.690;9.562;2023-08-30T11:40:48;15.32;;;11.38;;
57707;SDS011;43540;51.690;9.562;2023-08-30T11:43:15;16.67;;;10.70;;
57707;SDS011;43540;51.690;9.562;2023-08-30T11:45:45;14.80;;;10.40;;
57707;SDS011;43540;51.690;9.562;2023-08-30T11:48:12;14.85;;;10.18;;
57707;SDS011;43540;51.690;9.562;2023-08-30T11:50:39;12.90;;;8.95;;
57707;SDS011;43540;51.690;9.562;2023-08-30T11:53:14;11.75;;;7.72;;
57707;SDS011;43540;51.690;9.562;2023-08-30T11:55:44;12.07;;;7.40;;
57707;SDS011;43540;51.690;9.562;2023-08-30T11:58:12;11.07;;;7.18;;
57707;SDS011;43540;51.690;9.562;2023-08-30T12:00:41;9.27;;;6.35;;
57707;SDS011;43540;51.690;9.562;2023-08-30T12:03:08;9.15;;;6.40;;
57707;SDS011;43540;51.690;9.562;2023-08-30T12:05:43;9.07;;;6.43;;
57707;SDS011;43540;51.690;9.562;2023-08-30T12:10:50;10.10;;;6.57;;
57707;SDS011;43540;51.690;9.562;2023-08-30T12:15:47;10.07;;;6.45;;
57707;SDS011;43540;51.690;9.562;2023-08-30T12:18:15;14.60;;;9.27;;
57707;SDS011;43540;51.690;9.562;2023-08-30T12:23:39;9.85;;;6.45;;
57707;SDS011;43540;51.690;9.562;2023-08-30T12:26:06;9.10;;;5.57;;
57707;SDS011;43540;51.690;9.562;2023-08-30T12:28:38;10.18;;;6.03;;
57707;SDS011;43540;51.690;9.562;2023-08-30T12:31:07;9.18;;;6.25;;
57707;SDS011;43540;51.690;9.562;2023-08-30T12:33:34;8.13;;;5.40;;
57707;SDS011;43540;51.690;9.562;2023-08-30T12:36:01;6.30;;;4.75;;
57707;SDS011;43540;51.690;9.562;2023-08-30T12:38:29;7.30;;;5.38;;
57707;SDS011;43540;51.690;9.562;2023-08-30T12:40:56;11.00;;;5.35;;
57707;SDS011;43540;51.690;9.562;2023-08-30T12:43:23;7.30;;;5.10;;
57707;SDS011;43540;51.690;9.562;2023-08-30T12:45:50;7.78;;;5.07;;
57707;SDS011;43540;51.690;9.562;2023-08-30T12:48:18;7.20;;;4.72;;
57707;SDS011;43540;51.690;9.562;2023-08-30T12:50:45;7.18;;;5.20;;
57707;SDS011;43540;51.690;9.562;2023-08-30T12:53:14;7.32;;;4.97;;
57707;SDS011;43540;51.690;9.562;2023-08-30T12:55:43;7.38;;;4.90;;
57707;SDS011;43540;51.690;9.562;2023-08-30T12:58:10;7.88;;;4.25;;
57707;SDS011;43540;51.690;9.562;2023-08-30T13:00:38;7.85;;;4.68;;
57707;SDS011;43540;51.690;9.562;2023-08-30T13:03:05;7.50;;;4.65;;
57707;SDS011;43540;51.690;9.562;2023-08-30T13:05:32;5.28;;;4.22;;
57707;SDS011;43540;51.690;9.562;2023-08-30T13:08:00;6.45;;;4.35;;
57707;SDS011;43540;51.690;9.562;2023-08-30T13:10:26;4.53;;;3.92;;
57707;SDS011;43540;51.690;9.562;2023-08-30T13:12:53;6.97;;;4.43;;
57707;SDS011;43540;51.690;9.562;2023-08-30T13:15:21;7.35;;;4.68;;
57707;SDS011;43540;51.690;9.562;2023-08-30T13:17:48;8.30;;;5.43;;
57707;SDS011;43540;51.690;9.562;2023-08-30T13:20:15;9.00;;;4.85;;
57707;SDS011;43540;51.690;9.562;2023-08-30T13:22:42;6.05;;;4.35;;
57707;SDS011;43540;51.690;9.562;2023-08-30T13:25:09;8.00;;;4.20;;
57707;SDS011;43540;51.690;9.562;2023-08-30T13:27:36;7.68;;;4.30;;
57707;SDS011;43540;51.690;9.562;2023-08-30T13:30:03;6.53;;;4.32;;
57707;SDS011;43540;51.690;9.562;2023-08-30T13:32:30;7.35;;;4.80;;
57707;SDS011;43540;51.690;9.562;2023-08-30T13:34:57;7.22;;;4.57;;
57707;SDS011;43540;51.690;9.562;2023-08-30T13:37:25;6.63;;;4.68;;
57707;SDS011;43540;51.690;9.562;2023-08-30T13:39:52;6.45;;;4.43;;
57707;SDS011;43540;51.690;9.562;2023-08-30T13:42:20;6.18;;;4.55;;
57707;SDS011;43540;51.690;9.562;2023-08-30T13:44:50;6.25;;;4.32;;
57707;SDS011;43540;51.690;9.562;2023-08-30T13:47:17;6.30;;;4.60;;
57707;SDS011;43540;51.690;9.562;2023-08-30T13:49:44;6.97;;;4.80;;
57707;SDS011;43540;51.690;9.562;2023-08-30T13:52:10;7.35;;;5.30;;
57707;SDS011;43540;51.690;9.562;2023-08-30T13:54:37;7.22;;;4.60;;
57707;SDS011;43540;51.690;9.562;2023-08-30T13:57:04;6.85;;;4.93;;
57707;SDS011;43540;51.690;9.562;2023-08-30T13:59:31;5.65;;;4.35;;
57707;SDS011;43540;51.690;9.562;2023-08-30T14:01:58;7.47;;;4.70;;
57707;SDS011;43540;51.690;9.562;2023-08-30T14:04:25;7.85;;;4.72;;
57707;SDS011;43540;51.690;9.562;2023-08-30T14:06:55;6.25;;;4.43;;
57707;SDS011;43540;51.690;9.562;2023-08-30T14:09:22;7.60;;;4.57;;
57707;SDS011;43540;51.690;9.562;2023-08-30T14:11:49;6.80;;;4.07;;
57707;SDS011;43540;51.690;9.562;2023-08-30T14:14:16;6.80;;;4.50;;
57707;SDS011;43540;51.690;9.562;2023-08-30T14:16:43;8.05;;;4.70;;
57707;SDS011;43540;51.690;9.562;2023-08-30T14:19:10;6.15;;;4.30;;
57707;SDS011;43540;51.690;9.562;2023-08-30T14:21:37;6.35;;;4.40;;
57707;SDS011;43540;51.690;9.562;2023-08-30T14:24:04;5.30;;;4.15;;
57707;SDS011;43540;51.690;9.562;2023-08-30T14:26:31;6.88;;;4.40;;
57707;SDS011;43540;51.690;9.562;2023-08-30T14:28:59;7.75;;;4.82;;
57707;SDS011;43540;51.690;9.562;2023-08-30T14:31:26;8.10;;;5.15;;
57707;SDS011;43540;51.690;9.562;2023-08-30T14:33:56;7.38;;;4.78;;
57707;SDS011;43540;51.690;9.562;2023-08-30T14:36:26;9.73;;;4.70;;
57707;SDS011;43540;51.690;9.562;2023-08-30T14:38:53;6.32;;;4.40;;
57707;SDS011;43540;51.690;9.562;2023-08-30T14:41:20;8.02;;;4.53;;
57707;SDS011;43540;51.690;9.562;2023-08-30T14:43:47;6.38;;;4.20;;
57707;SDS011;43540;51.690;9.562;2023-08-30T14:46:13;6.30;;;4.13;;
57707;SDS011;43540;51.690;9.562;2023-08-30T14:48:49;8.38;;;4.35;;
57707;SDS011;43540;51.690;9.562;2023-08-30T14:54:07;7.40;;;4.13;;
57707;SDS011;43540;51.690;9.562;2023-08-30T14:56:34;7.25;;;4.38;;
57707;SDS011;43540;51.690;9.562;2023-08-30T14:59:00;7.22;;;4.68;;
57707;SDS011;43540;51.690;9.562;2023-08-30T15:01:27;9.73;;;4.97;;
57707;SDS011;43540;51.690;9.562;2023-08-30T15:03:55;7.20;;;4.85;;
57707;SDS011;43540;51.690;9.562;2023-08-30T15:06:22;6.97;;;4.70;;